Time;durP1;ratioP1;P1;durP2;ratioP2;P2;SDS_P1;SDS_P2;PMS_P1;PMS_P2;Temp;Humidity;BMP_temperature;BMP_pressure;BME280_temperature;BME280_humidity;BME280_pressure;Samples;Min_cycle;Max_cycle;Signal;HPM_P1;HPM_P2
2022/04/01 00:00:54;;;;;;;14.73;13.33;;;;;;;9.98;55.23;95889.31;8385035;28;20235;-69
2022/04/01 00:04:58;;;;;;;15.43;14.03;;;;;;;10.02;55.04;95895.09;8385681;28;20232;-69
2022/04/01 00:09:01;;;;;;;15.63;14.13;;;;;;;10.01;55.05;95894.25;8385428;28;20239;-69
2022/04/01 00:13:04;;;;;;;16.80;15.20;;;;;;;9.85;55.62;95888.59;8385314;28;20227;-69
2022/04/01 00:17:07;;;;;;;15.53;14.10;;;;;;;9.74;55.71;95886.78;8385195;28;20231;-69
2022/04/01 00:21:12;;;;;;;15.47;14.10;;;;;;;9.84;55.20;95886.94;8384465;28;20227;-69
2022/04/01 00:25:15;;;;;;;16.03;14.63;;;;;;;9.63;56.02;95879.81;8384825;28;20254;-70
2022/04/01 00:29:18;;;;;;;15.67;14.27;;;;;;;9.67;55.91;95883.00;8384522;28;20235;-69
2022/04/01 00:33:22;;;;;;;16.53;15.03;;;;;;;9.59;56.19;95879.25;8384732;28;20417;-70
2022/04/01 00:37:27;;;;;;;15.87;14.47;;;;;;;9.70;55.62;95878.44;8384681;28;20227;-69
2022/04/01 00:41:32;;;;;;;15.93;14.53;;;;;;;9.65;55.64;95869.38;8383949;28;20231;-69
2022/04/01 00:45:35;;;;;;;15.67;14.27;;;;;;;9.77;55.73;95882.22;8383797;28;20546;-69
2022/04/01 00:49:38;;;;;;;17.27;15.57;;;;;;;9.66;56.19;95876.19;8383893;28;20386;-69
2022/04/01 00:53:43;;;;;;;15.93;14.53;;;;;;;9.64;55.94;95880.66;8383964;28;20426;-69
2022/04/01 00:57:47;;;;;;;15.87;14.47;;;;;;;9.65;55.86;95879.72;8383708;28;20234;-69
2022/04/01 01:01:50;;;;;;;15.60;14.30;;;;;;;9.67;55.97;95872.66;8383744;28;20234;-71
2022/04/01 01:05:53;;;;;;;17.13;15.43;;;;;;;9.18;56.98;95869.34;8373448;28;20251;-69
2022/04/01 01:09:59;;;;;;;15.70;14.10;;;;;;;9.51;56.42;95866.03;8350527;28;20243;-69
2022/04/01 01:14:02;;;;;;;16.37;14.93;;;;;;;9.52;56.42;95866.84;8350494;28;20228;-69
2022/04/01 01:18:05;;;;;;;15.40;14.10;;;;;;;9.43;56.49;95860.63;8350205;28;20562;-69
2022/04/01 01:22:09;;;;;;;15.43;14.13;;;;;;;9.46;56.59;95869.91;8350194;28;20236;-69
2022/04/01 01:26:13;;;;;;;16.60;15.13;;;;;;;9.30;56.82;95865.84;8349624;28;20542;-69
2022/04/01 01:30:16;;;;;;;17.37;15.70;;;;;;;9.38;56.44;95868.69;8349964;28;20236;-69
2022/04/01 01:34:19;;;;;;;17.07;15.57;;;;;;;9.36;56.58;95865.41;8349724;28;20243;-70
2022/04/01 01:38:22;;;;;;;17.07;15.57;;;;;;;9.17;56.31;95870.25;8349713;28;20434;-69
2022/04/01 01:42:26;;;;;;;15.97;14.67;;;;;;;9.29;56.54;95874.56;8349966;28;20249;-69
2022/04/01 01:46:29;;;;;;;16.73;15.23;;;;;;;9.17;56.54;95870.25;8351382;28;20212;-69
2022/04/01 01:54:52;;;;;;;16.20;14.80;;;;;;;9.22;56.63;95865.59;8350394;28;20207;-69
2022/04/01 01:58:57;;;;;;;16.27;14.83;;;;;;;9.05;56.80;95858.25;8350961;28;20389;-69
2022/04/01 02:02:59;;;;;;;15.50;14.20;;;;;;;9.18;56.40;95849.50;8371678;28;20223;-69
2022/04/01 02:07:03;;;;;;;15.70;14.40;;;;;;;9.22;56.34;95849.28;8383182;28;20406;-69
2022/04/01 02:11:07;;;;;;;16.53;15.03;;;;;;;9.02;56.55;95850.72;8381635;28;20235;-69
2022/04/01 02:15:11;;;;;;;15.83;14.40;;;;;;;9.12;56.36;95849.94;8381170;28;20553;-69
2022/04/01 02:19:20;;;;;;;16.10;14.70;;;;;;;9.06;56.17;95857.28;8381304;28;20246;-69
2022/04/01 02:23:24;;;;;;;16.70;15.30;;;;;;;9.03;56.17;95852.38;8381343;28;20249;-69
2022/04/01 02:27:27;;;;;;;16.27;14.87;;;;;;;9.08;55.92;95856.28;8381242;28;20561;-69
2022/04/01 02:31:32;;;;;;;16.07;14.67;;;;;;;8.98;56.43;95856.06;8381052;28;20239;-69
2022/04/01 02:35:35;;;;;;;15.27;13.97;;;;;;;9.02;55.89;95851.53;8380683;28;20237;-69
2022/04/01 02:39:38;;;;;;;16.33;14.90;;;;;;;8.98;55.88;95850.91;8380477;28;20322;-69
2022/04/01 02:43:41;;;;;;;15.50;14.20;;;;;;;9.05;55.96;95853.06;8380547;28;20227;-69
2022/04/01 02:47:45;;;;;;;15.67;14.30;;;;;;;9.06;56.24;95849.53;8380366;28;20239;-69
2022/04/01 02:51:48;;;;;;;15.90;14.40;;;;;;;9.07;55.96;95854.59;8380601;28;20537;-69
2022/04/01 02:55:51;;;;;;;16.20;14.70;;;;;;;9.07;55.87;95857.19;8380433;28;20227;-69
2022/04/01 02:59:54;;;;;;;15.80;14.47;;;;;;;9.05;55.85;95861.66;8380405;28;20227;-69
2022/04/01 03:03:58;;;;;;;15.37;14.00;;;;;;;9.05;55.92;95859.06;8380106;28;20227;-69
2022/04/01 03:08:03;;;;;;;15.47;14.07;;;;;;;8.91;56.87;95860.06;8380027;28;20235;-69
2022/04/01 03:12:08;;;;;;;15.43;14.03;;;;;;;8.98;56.34;95852.69;8380163;28;20423;-69
2022/04/01 03:16:12;;;;;;;15.67;14.23;;;;;;;9.00;56.33;95855.97;8379610;28;20530;-69
2022/04/01 03:20:17;;;;;;;15.13;13.73;;;;;;;8.94;56.29;95869.31;8379807;28;20521;-69
2022/04/01 03:24:20;;;;;;;15.27;13.87;;;;;;;8.99;56.32;95862.91;8379789;28;20235;-70
2022/04/01 03:28:23;;;;;;;16.27;14.77;;;;;;;8.99;56.04;95860.31;8379876;28;20235;-69
2022/04/01 03:32:26;;;;;;;15.77;14.37;;;;;;;8.99;56.37;95867.25;8379807;28;20250;-70
2022/04/01 03:36:31;;;;;;;16.23;14.80;;;;;;;8.94;56.66;95874.50;8379680;28;20243;-69
2022/04/01 03:40:35;;;;;;;16.87;15.37;;;;;;;8.97;56.40;95877.69;8379493;28;20235;-69
2022/04/01 03:44:41;;;;;;;16.37;14.97;;;;;;;8.96;56.18;95882.94;8379507;28;20561;-70
2022/04/01 03:48:48;;;;;;;16.27;14.87;;;;;;;8.84;56.90;95882.06;8379541;28;20227;-70
2022/04/01 03:53:00;;;;;;;16.10;14.70;;;;;;;8.75;56.76;95886.09;8379472;28;20227;-69
2022/04/01 03:57:04;;;;;;;16.53;14.93;;;;;;;8.84;56.30;95873.50;8379483;28;20530;-69
2022/04/01 04:01:08;;;;;;;16.77;15.27;;;;;;;8.76;56.56;95876.63;8379175;28;20224;-69
2022/04/01 04:05:11;;;;;;;16.13;14.73;;;;;;;8.73;56.30;95872.50;8378668;28;20223;-70
2022/04/01 04:09:15;;;;;;;16.07;14.77;;;;;;;8.84;56.06;95881.25;8379082;28;20239;-70
2022/04/01 04:13:19;;;;;;;16.07;14.63;;;;;;;8.78;56.65;95879.91;8378936;28;20242;-70
2022/04/01 04:17:29;;;;;;;15.50;14.10;;;;;;;8.88;55.78;95880.91;8379623;28;20231;-70
2022/04/01 04:21:39;;;;;;;16.63;15.20;;;;;;;8.74;55.79;95873.34;8384922;28;20410;-69
2022/04/01 04:25:54;;;;;;;16.57;15.17;;;;;;;8.76;55.98;95879.22;8384899;28;20228;-70
2022/04/01 04:30:03;;;;;;;16.13;14.73;;;;;;;8.75;55.89;95896.44;8384759;28;20230;-70
2022/04/01 04:34:10;;;;;;;16.47;15.07;;;;;;;8.66;56.30;95891.09;8384415;28;20422;-70
2022/04/01 04:38:13;;;;;;;16.87;15.37;;;;;;;8.55;55.82;95892.66;8376227;28;20227;-69
2022/04/01 04:42:19;;;;;;;17.43;15.93;;;;;;;8.46;56.71;95898.47;8384008;28;20246;-69
2022/04/01 04:46:23;;;;;;;17.57;15.97;;;;;;;8.52;56.65;95895.44;8384222;28;20235;-69
2022/04/01 04:50:26;;;;;;;17.10;15.60;;;;;;;8.59;56.46;95901.84;8384037;28;20553;-70
2022/04/01 04:54:29;;;;;;;17.17;15.63;;;;;;;8.56;56.21;95903.81;8384021;28;20243;-69
2022/04/01 04:58:39;;;;;;;16.73;15.23;;;;;;;8.54;56.69;95905.66;8383912;28;20544;-69
2022/04/01 05:02:55;;;;;;;17.53;15.93;;;;;;;8.60;56.56;95912.97;8383225;28;20533;-70
2022/04/01 05:07:10;;;;;;;17.93;16.33;;;;;;;8.64;56.22;95922.16;8383535;28;20341;-69
2022/04/01 05:11:18;;;;;;;17.10;15.60;;;;;;;8.50;56.62;95919.72;8383139;28;20534;-69
2022/04/01 05:15:27;;;;;;;16.43;14.93;;;;;;;8.55;56.60;95935.72;8379896;28;20231;-70
2022/04/01 05:19:31;;;;;;;17.40;15.80;;;;;;;8.52;56.46;95933.34;8383442;28;20529;-70
2022/04/01 05:23:41;;;;;;;16.97;15.27;;;;;;;8.57;56.31;95934.66;8382522;28;20538;-70
2022/04/01 05:27:52;;;;;;;16.40;15.00;;;;;;;8.57;56.19;95947.56;8383064;28;20223;-69
2022/04/01 05:32:02;;;;;;;17.10;15.50;;;;;;;8.46;56.48;95956.97;8381643;28;20228;-70
2022/04/01 05:36:10;;;;;;;16.63;15.13;;;;;;;8.28;57.11;95959.00;8382696;28;20231;-70
2022/04/01 05:40:14;;;;;;;16.53;15.03;;;;;;;8.19;56.90;95961.25;8381246;28;20292;-69
2022/04/01 05:44:17;;;;;;;15.40;14.10;;;;;;;8.08;57.66;95968.88;8382268;28;20246;-70
2022/04/01 05:48:22;;;;;;;17.07;15.57;;;;;;;8.36;57.16;95967.06;8381805;28;20242;-70
2022/04/01 05:52:28;;;;;;;15.40;14.07;;;;;;;8.26;57.07;95968.59;8382089;28;20239;-69
2022/04/01 05:56:35;;;;;;;15.10;13.80;;;;;;;8.28;56.83;95972.72;8382012;28;20525;-69
2022/04/01 06:00:45;;;;;;;15.83;14.17;;;;;;;8.36;56.65;95975.59;8381766;28;20595;-70
2022/04/01 06:05:06;;;;;;;14.63;13.43;;;;;;;8.39;56.53;95974.56;8381328;28;20232;-69
2022/04/01 06:09:20;;;;;;;15.10;13.77;;;;;;;8.25;56.77;95985.00;8380880;28;20226;-70
2022/04/01 06:13:30;;;;;;;14.40;13.10;;;;;;;8.37;55.98;95984.97;8381470;28;20235;-69
2022/04/01 06:17:41;;;;;;;13.33;12.23;;;;;;;8.38;56.16;95996.16;8381425;28;20227;-69
2022/04/01 06:21:48;;;;;;;13.07;12.00;;;;;;;8.35;56.21;95989.41;8381182;28;20236;-69
2022/04/01 06:25:57;;;;;;;13.87;12.67;;;;;;;8.34;56.14;95994.69;8381025;28;20235;-69
2022/04/01 06:30:05;;;;;;;12.43;11.43;;;;;;;8.33;56.44;95999.03;8381156;28;20423;-69
2022/04/01 06:34:14;;;;;;;12.30;11.20;;;;;;;8.42;56.75;96002.78;8380959;28;20235;-69
2022/04/01 06:38:22;;;;;;;12.77;11.67;;;;;;;8.18;56.81;96000.84;8373164;28;20234;-69
2022/04/01 06:42:28;;;;;;;11.93;10.83;;;;;;;8.13;57.62;96002.09;8380254;28;20432;-69
2022/04/01 06:46:31;;;;;;;13.37;12.17;;;;;;;7.72;58.18;96006.44;8380552;28;20231;-69
2022/04/01 06:50:34;;;;;;;13.50;12.30;;;;;;;8.09;57.28;96011.81;8380503;28;20227;-69
2022/04/01 06:54:38;;;;;;;12.70;11.60;;;;;;;8.09;57.16;96016.97;8380384;28;20411;-70
2022/04/01 06:58:41;;;;;;;11.30;10.37;;;;;;;7.85;58.10;96014.22;8380369;28;20227;-70
2022/04/01 07:02:45;;;;;;;12.00;10.90;;;;;;;8.13;57.56;96020.13;8400669;28;20541;-70
2022/04/01 07:06:48;;;;;;;11.57;10.50;;;;;;;8.35;56.92;96020.38;8413319;28;20230;-70
2022/04/01 07:10:53;;;;;;;10.90;9.90;;;;;;;8.12;57.90;96027.03;8413392;28;20231;-70
2022/04/01 07:14:55;;;;;;;11.20;10.20;;;;;;;8.09;57.56;96024.69;8413216;28;20254;-70
2022/04/01 07:18:59;;;;;;;11.27;10.23;;;;;;;7.79;57.81;96030.06;8413069;28;20231;-70
2022/04/01 07:23:01;;;;;;;10.10;9.20;;;;;;;8.08;57.97;96029.94;8412750;28;20238;-70
2022/04/01 07:27:06;;;;;;;10.03;9.07;;;;;;;8.20;57.18;96027.38;8412993;28;20652;-69
2022/04/01 07:35:35;;;;;;;8.67;7.97;;;;;;;7.93;57.24;96027.41;8412726;28;20226;-70
2022/04/01 07:39:38;;;;;;;9.07;8.20;;;;;;;7.90;57.79;96034.50;8412752;28;20226;-70
2022/04/01 07:43:42;;;;;;;7.90;7.20;;;;;;;8.00;57.44;96041.56;8412732;28;20241;-69
2022/04/01 07:47:45;;;;;;;7.80;7.10;;;;;;;8.11;57.11;96047.75;8412764;28;20413;-70
2022/04/01 07:51:48;;;;;;;7.80;7.17;;;;;;;8.32;56.81;96041.22;8412578;28;20231;-70
2022/04/01 07:55:51;;;;;;;7.20;6.50;;;;;;;8.25;56.68;96050.28;8418937;28;20226;-70
2022/04/01 07:59:55;;;;;;;7.13;6.53;;;;;;;8.08;57.51;96055.72;8418909;28;20237;-70
2022/04/01 08:03:58;;;;;;;10.07;8.40;;;;;;;8.10;57.36;96059.03;8389755;28;20240;-69
2022/04/01 08:08:01;;;;;;;7.17;6.57;;;;;;;7.89;57.66;96061.22;8385397;28;20231;-69
2022/04/01 08:12:05;;;;;;;5.37;4.90;;;;;;;7.99;57.11;96060.53;8385490;28;20238;-69
2022/04/01 08:16:11;;;;;;;4.97;4.53;;;;;;;8.00;57.69;96059.59;8385458;28;20238;-69
2022/04/01 08:20:14;;;;;;;5.00;4.60;;;;;;;7.80;57.42;96073.75;8384688;28;20522;-70
2022/04/01 08:24:17;;;;;;;4.80;4.40;;;;;;;8.09;57.02;96071.09;8384926;28;20243;-69
2022/04/01 08:28:21;;;;;;;5.23;4.43;;;;;;;8.12;56.93;96075.22;8385096;28;20239;-70
2022/04/01 08:32:26;;;;;;;4.27;3.97;;;;;;;8.02;57.41;96077.56;8384836;28;20261;-69
2022/04/01 08:36:29;;;;;;;4.17;3.87;;;;;;;8.10;57.02;96088.19;8384582;28;20249;-70
2022/04/01 08:40:32;;;;;;;3.97;3.67;;;;;;;7.99;57.30;96088.06;8384133;28;20242;-70
2022/04/01 08:44:37;;;;;;;3.90;3.60;;;;;;;7.93;57.32;96091.84;8384113;28;20242;-70
2022/04/01 08:48:43;;;;;;;4.10;3.70;;;;;;;7.92;56.81;96095.38;8383859;28;20219;-70
2022/04/01 08:52:46;;;;;;;4.03;3.63;;;;;;;7.94;57.10;96097.81;8383722;28;20235;-70
2022/04/01 08:56:49;;;;;;;4.30;3.90;;;;;;;7.73;57.43;96095.69;8383675;28;20227;-71
2022/04/01 09:00:52;;;;;;;4.00;3.70;;;;;;;7.82;57.40;96099.44;8382411;28;20294;-70
2022/04/01 09:05:05;;;;;;;4.03;3.73;;;;;;;7.92;57.56;96104.84;8383395;28;20232;-69
2022/04/01 09:09:24;;;;;;;4.83;4.33;;;;;;;7.94;56.67;96105.56;8383477;28;20298;-69
2022/04/01 09:13:28;;;;;;;3.97;3.67;;;;;;;8.01;57.87;96118.00;8383240;28;20273;-69
2022/04/01 09:17:43;;;;;;;4.37;4.03;;;;;;;7.94;57.61;96115.88;8383357;28;20227;-70
2022/04/01 09:21:49;;;;;;;4.90;4.50;;;;;;;8.19;58.09;96125.47;8382851;28;20228;-69
2022/04/01 09:25:53;;;;;;;4.37;4.07;;;;;;;8.22;57.20;96115.78;8382914;28;20243;-70
2022/04/01 09:29:56;;;;;;;5.67;4.80;;;;;;;7.63;58.20;96133.25;8383009;28;20481;-69
2022/04/01 09:33:59;;;;;;;5.00;4.60;;;;;;;7.87;57.66;96130.09;8382695;28;20231;-69
2022/04/01 09:38:05;;;;;;;5.57;5.07;;;;;;;7.83;57.94;96142.34;8382697;28;20238;-70
2022/04/01 09:42:11;;;;;;;5.70;5.20;;;;;;;7.97;57.72;96141.47;8382410;28;20227;-69
2022/04/01 09:46:24;;;;;;;7.10;6.40;;;;;;;7.89;58.31;96143.69;8381985;28;20228;-70
2022/04/01 09:50:30;;;;;;;6.17;5.60;;;;;;;8.13;57.42;96143.88;8382219;28;20242;-70
2022/04/01 09:54:34;;;;;;;8.70;5.80;;;;;;;7.81;57.56;96139.03;8382104;28;20238;-69
2022/04/01 09:58:37;;;;;;;5.90;5.40;;;;;;;7.57;58.45;96149.09;8381373;28;20228;-69
2022/04/01 10:02:40;;;;;;;6.00;5.50;;;;;;;7.94;57.08;96144.22;8381910;28;20250;-69
2022/04/01 10:06:43;;;;;;;6.47;5.97;;;;;;;7.81;57.39;96149.34;8381032;28;20564;-68
2022/04/01 10:10:48;;;;;;;6.60;6.00;;;;;;;7.74;57.89;96148.06;8381822;28;20238;-67
2022/04/01 10:14:54;;;;;;;7.43;6.13;;;;;;;8.11;56.40;96149.16;8380226;28;20231;-68
2022/04/01 10:19:08;;;;;;;7.27;6.43;;;;;;;8.05;55.88;96152.09;8381313;28;20238;-68
2022/04/01 10:23:12;;;;;;;6.60;6.00;;;;;;;8.02;56.77;96147.97;8380473;28;20302;-72
2022/04/01 10:27:23;;;;;;;8.07;6.10;;;;;;;8.15;55.98;96155.78;8407383;28;20237;-70
2022/04/01 10:31:26;;;;;;;8.57;7.67;;;;;;;7.85;56.93;96149.97;8413260;28;20406;-71
2022/04/01 10:35:32;;;;;;;9.50;8.60;;;;;;;7.78;57.68;96150.34;8413775;28;20242;-69
2022/04/01 10:39:48;;;;;;;9.00;8.10;;;;;;;7.68;57.02;96151.03;8413825;28;20422;-71
2022/04/01 10:43:55;;;;;;;9.10;7.97;;;;;;;7.81;57.83;96151.91;8412559;28;20235;-69
2022/04/01 10:52:22;;;;;;;8.47;7.50;;;;;;;7.94;56.94;96167.41;8379495;28;20227;-72
2022/04/01 10:56:36;;;;;;;9.37;8.27;;;;;;;7.44;57.75;96160.16;8361595;28;20239;-70
2022/04/01 11:00:52;;;;;;;9.43;8.53;;;;;;;7.81;57.06;96167.38;8348690;28;20228;-70
2022/04/01 11:04:55;;;;;;;9.77;8.80;;;;;;;7.54;57.60;96177.59;8379547;28;20244;-71
2022/04/01 11:08:58;;;;;;;10.37;9.03;;;;;;;8.02;57.19;96176.34;8380033;28;20245;-69
2022/04/01 11:13:30;;;;;;;10.53;9.03;;;;;;;7.54;57.87;96177.59;8380065;28;20235;-69
2022/04/01 11:18:04;;;;;;;10.20;9.20;;;;;;;7.79;57.53;96192.41;8379654;28;20222;-68
2022/04/01 11:22:34;;;;;;;11.13;9.43;;;;;;;7.28;57.19;96185.16;8379940;28;20337;-71
2022/04/01 11:26:40;;;;;;;10.53;9.43;;;;;;;7.33;58.04;96184.88;8379575;28;20227;-69
2022/04/01 11:30:45;;;;;;;10.43;9.43;;;;;;;7.38;57.67;96190.59;8386268;28;20231;-69
2022/04/01 11:34:57;;;;;;;13.47;10.17;;;;;;;7.46;57.84;96187.56;8386531;28;20235;-71
2022/04/01 11:39:00;;;;;;;11.17;9.37;;;;;;;7.23;58.67;96188.03;8386584;28;20396;-70
2022/04/01 11:43:09;;;;;;;9.83;8.93;;;;;;;7.52;57.48;96184.59;8385854;28;20518;-69
2022/04/01 11:47:12;;;;;;;11.37;10.13;;;;;;;7.20;58.13;96190.75;8385511;28;20223;-69
2022/04/01 11:51:19;;;;;;;13.27;10.30;;;;;;;7.63;57.45;96195.09;8386089;28;20237;-70
2022/04/01 11:55:23;;;;;;;14.40;10.87;;;;;;;7.13;58.63;96193.78;8365911;28;20224;-70
2022/04/01 11:59:26;;;;;;;10.37;9.40;;;;;;;7.37;57.89;96194.09;8376023;28;20448;-69
2022/04/01 12:03:29;;;;;;;10.63;9.53;;;;;;;7.18;57.44;96195.19;8382132;28;20258;-69
2022/04/01 12:11:58;;;;;;;10.97;9.83;;;;;;;7.27;56.83;96211.81;8371496;28;20226;-70
2022/04/01 12:16:01;;;;;;;12.37;10.00;;;;;;;7.47;57.04;96214.97;8371483;28;20553;-69
2022/04/01 12:20:12;;;;;;;11.53;10.43;;;;;;;6.90;58.94;96220.88;8373552;28;20230;-69
2022/04/01 12:24:35;;;;;;;10.53;9.50;;;;;;;7.21;57.23;96215.56;8373403;28;20227;-69
2022/04/01 12:28:39;;;;;;;10.30;9.20;;;;;;;7.35;57.50;96214.78;8361551;28;20455;-70
2022/04/01 12:32:54;;;;;;;10.93;9.83;;;;;;;7.14;57.21;96211.72;8381496;28;20228;-70
2022/04/01 12:37:00;;;;;;;11.13;10.10;;;;;;;6.85;58.28;96224.53;8372979;28;20231;-70
2022/04/01 12:41:12;;;;;;;15.47;12.83;;;;;;;7.12;56.95;96215.28;8368276;28;20228;-72
2022/04/01 12:45:15;;;;;;;10.53;9.10;;;;;;;6.84;58.30;96220.28;8378305;28;20232;-69
2022/04/01 12:49:18;;;;;;;10.60;9.53;;;;;;;6.91;58.05;96232.81;8383823;28;20241;-71
2022/04/01 12:53:27;;;;;;;10.67;9.57;;;;;;;7.04;57.84;96232.03;8389289;28;20516;-67
2022/04/01 12:57:33;;;;;;;9.63;8.67;;;;;;;7.16;57.01;96234.78;8383015;28;20527;-70
2022/04/01 13:01:38;;;;;;;10.30;8.67;;;;;;;6.89;57.90;96232.88;8383612;28;20227;-68
2022/04/01 13:05:40;;;;;;;9.23;8.43;;;;;;;6.54;58.24;96235.72;8387404;28;20227;-71
2022/04/01 13:09:48;;;;;;;8.97;8.17;;;;;;;6.89;56.71;96237.22;8390069;28;20227;-69
2022/04/01 13:13:53;;;;;;;12.97;9.10;;;;;;;6.62;57.55;96230.97;8388628;28;20227;-70
2022/04/01 13:17:57;;;;;;;9.20;8.30;;;;;;;6.58;56.97;96244.09;8386543;28;20235;-74
2022/04/01 13:22:01;;;;;;;13.13;8.57;;;;;;;6.79;56.66;96244.63;8370315;28;20224;-70
2022/04/01 13:26:05;;;;;;;9.13;8.20;;;;;;;7.00;56.58;96251.13;8374498;28;20227;-72
2022/04/01 13:30:11;;;;;;;10.03;8.50;;;;;;;7.18;56.48;96245.84;8377589;28;20234;-71
2022/04/01 13:34:14;;;;;;;10.10;8.63;;;;;;;7.08;57.14;96255.00;8364487;28;20398;-69
2022/04/01 13:38:17;;;;;;;10.27;9.00;;;;;;;7.06;56.53;96249.94;8385680;28;20560;-71
2022/04/01 13:42:20;;;;;;;9.17;8.10;;;;;;;7.01;56.61;96262.25;8382453;28;20577;-70
2022/04/01 13:46:25;;;;;;;9.57;8.00;;;;;;;6.95;57.13;96255.72;8404065;28;20311;-72
2022/04/01 13:50:28;;;;;;;12.97;10.20;;;;;;;7.08;56.32;96260.97;8384408;28;20253;-71
2022/04/01 13:54:31;;;;;;;14.13;11.20;;;;;;;6.87;56.85;96263.03;8409496;28;20231;-71
2022/04/01 13:58:34;;;;;;;11.20;9.17;;;;;;;6.98;56.29;96260.69;8415296;28;20551;-71
2022/04/01 14:02:38;;;;;;;9.50;7.53;;;;;;;6.90;56.07;96262.88;8397249;28;20525;-71
2022/04/01 14:06:41;;;;;;;8.90;8.10;;;;;;;6.92;56.32;96267.94;8381487;28;20242;-73
2022/04/01 14:10:48;;;;;;;8.63;7.83;;;;;;;6.92;56.13;96271.31;8381480;28;20287;-70
2022/04/01 14:14:51;;;;;;;8.53;7.50;;;;;;;6.68;56.80;96270.13;8381563;28;20321;-67
2022/04/01 14:18:55;;;;;;;7.40;6.80;;;;;;;6.12;58.18;96269.75;8381570;28;20232;-73
2022/04/01 14:22:58;;;;;;;9.17;7.73;;;;;;;6.62;57.23;96269.53;8381415;28;20231;-70
2022/04/01 14:27:01;;;;;;;11.23;10.23;;;;;;;6.21;57.58;96271.84;8381069;28;20236;-71
2022/04/01 14:31:05;;;;;;;12.57;11.37;;;;;;;6.50;57.18;96279.69;8381318;28;20530;-72
2022/04/01 14:35:10;;;;;;;12.43;10.97;;;;;;;6.53;56.38;96284.66;8381121;28;20239;-73
2022/04/01 14:39:14;;;;;;;8.70;7.80;;;;;;;5.90;58.13;96288.00;8380600;28;20223;-73
2022/04/01 14:43:17;;;;;;;7.13;6.43;;;;;;;5.83;59.10;96295.22;8380816;28;20446;-71
2022/04/01 14:47:20;;;;;;;9.70;8.70;;;;;;;6.21;57.52;96300.09;8380682;28;20238;-69
2022/04/01 14:51:27;;;;;;;10.33;9.27;;;;;;;5.88;58.56;96300.91;8380764;28;20236;-72
2022/04/01 14:55:30;;;;;;;7.70;6.80;;;;;;;5.95;58.25;96309.16;8380243;28;20238;-72
2022/04/01 14:59:36;;;;;;;7.50;6.80;;;;;;;5.94;58.14;96312.63;8380419;28;20531;-68
2022/04/01 15:03:39;;;;;;;7.30;6.60;;;;;;;6.15;57.97;96311.53;8380007;28;20231;-70
2022/04/01 15:08:03;;;;;;;7.60;6.90;;;;;;;5.87;58.20;96317.25;8380342;28;20235;-71
2022/04/01 15:12:06;;;;;;;6.80;6.10;;;;;;;6.04;57.88;96319.81;8400738;28;20227;-72
2022/04/01 15:16:10;;;;;;;5.87;5.37;;;;;;;5.84;57.98;96325.94;8412609;28;20249;-71
2022/04/01 15:20:14;;;;;;;6.57;5.97;;;;;;;5.56;58.72;96325.69;8413059;28;20237;-69
2022/04/01 15:24:20;;;;;;;5.60;5.10;;;;;;;5.85;57.96;96332.75;8413016;28;20233;-70
2022/04/01 15:28:23;;;;;;;5.83;5.33;;;;;;;6.07;57.49;96349.66;8413069;28;20230;-71
2022/04/01 15:32:26;;;;;;;5.83;5.33;;;;;;;5.64;58.57;96344.13;8412948;28;20230;-72
2022/04/01 15:36:31;;;;;;;6.30;5.70;;;;;;;5.69;58.26;96349.84;8413004;28;20239;-72
2022/04/01 15:40:37;;;;;;;5.57;5.07;;;;;;;5.84;57.53;96350.81;8398928;28;20230;-72
2022/04/01 15:44:40;;;;;;;5.70;5.17;;;;;;;5.84;57.04;96348.25;8392934;28;20230;-71
2022/04/01 15:48:49;;;;;;;6.43;5.83;;;;;;;5.84;57.64;96355.94;8392957;28;20234;-70
2022/04/01 15:52:53;;;;;;;8.00;6.00;;;;;;;5.85;57.30;96349.91;8382276;28;20415;-71
2022/04/01 15:57:00;;;;;;;6.07;5.50;;;;;;;5.50;58.43;96367.91;8378764;28;20228;-69
2022/04/01 16:01:03;;;;;;;6.23;5.63;;;;;;;5.96;57.06;96365.66;8386226;28;20231;-70
2022/04/01 16:05:10;;;;;;;6.80;6.20;;;;;;;5.91;57.12;96380.44;8380295;28;20491;-71
2022/04/01 16:09:15;;;;;;;6.60;5.93;;;;;;;6.17;56.55;96389.41;8390612;28;20231;-70
2022/04/01 16:13:23;;;;;;;6.07;5.47;;;;;;;5.97;56.55;96395.56;8393549;28;20222;-70
2022/04/01 16:17:28;;;;;;;6.63;6.13;;;;;;;5.71;57.17;96404.53;8398757;28;20416;-70
2022/04/01 16:21:32;;;;;;;10.33;9.43;;;;;;;5.79;57.17;96406.75;8401191;28;20226;-70
2022/04/01 16:25:35;;;;;;;8.40;7.50;;;;;;;5.63;58.10;96411.78;8403076;28;20545;-70
2022/04/01 16:29:39;;;;;;;6.80;6.20;;;;;;;5.75;57.34;96408.63;8418140;28;20230;-70
2022/04/01 16:33:42;;;;;;;6.77;6.27;;;;;;;5.88;57.11;96416.53;8417805;28;20230;-70
2022/04/01 16:37:45;;;;;;;7.10;6.50;;;;;;;5.84;57.22;96433.03;8420570;28;20238;-70
2022/04/01 16:41:47;;;;;;;7.10;6.40;;;;;;;5.97;56.87;96436.66;8420924;28;20556;-70
2022/04/01 16:45:54;;;;;;;7.30;6.70;;;;;;;5.91;56.28;96434.38;8421101;28;20230;-70
2022/04/01 16:49:57;;;;;;;7.53;6.93;;;;;;;5.52;57.66;96430.31;8421038;28;20403;-71
2022/04/01 16:54:00;;;;;;;7.60;6.90;;;;;;;5.67;57.54;96444.13;8420892;28;20234;-71
2022/04/01 16:58:04;;;;;;;8.43;7.60;;;;;;;5.58;57.24;96437.72;8420845;28;20231;-71
2022/04/01 17:02:09;;;;;;;7.93;7.33;;;;;;;5.52;57.53;96450.88;8407231;28;20415;-71
2022/04/01 17:14:53;;;;;;;8.00;7.30;;;;;;;5.68;57.30;96456.91;8387212;28;20247;-70
2022/04/01 17:18:58;;;;;;;8.70;7.90;;;;;;;5.29;57.98;96457.94;8386989;28;20232;-71
2022/04/01 17:23:03;;;;;;;7.70;7.00;;;;;;;5.58;57.56;96465.97;8386823;28;20231;-71
2022/04/01 17:27:05;;;;;;;8.80;8.00;;;;;;;5.40;57.97;96469.41;8386724;28;20236;-70
2022/04/01 17:31:09;;;;;;;9.23;8.43;;;;;;;5.23;58.71;96470.19;8386556;28;20234;-70
2022/04/01 17:35:16;;;;;;;10.23;9.43;;;;;;;5.48;58.17;96475.84;8386057;28;20219;-70
2022/04/01 17:39:20;;;;;;;24.17;21.57;;;;;;;5.45;58.06;96481.13;8386191;28;20231;-70
2022/04/01 17:43:24;;;;;;;19.00;17.03;;;;;;;5.39;57.65;96488.28;8386444;28;20235;-70
2022/04/01 17:47:27;;;;;;;17.93;16.23;;;;;;;5.09;59.08;96488.81;8386265;28;20245;-71
2022/04/01 17:51:34;;;;;;;13.00;11.80;;;;;;;5.42;57.59;96491.53;8386085;28;20231;-70
2022/04/01 17:55:39;;;;;;;12.43;11.33;;;;;;;5.37;58.51;96495.22;8385938;28;20334;-69
2022/04/01 17:59:46;;;;;;;12.63;11.40;;;;;;;5.52;58.01;96501.38;8385631;28;20281;-70
2022/04/01 18:03:49;;;;;;;9.90;8.90;;;;;;;5.25;58.35;96502.59;8385457;28;20235;-70
2022/04/01 18:07:58;;;;;;;10.07;9.07;;;;;;;5.06;58.93;96501.78;8385312;28;20242;-70
2022/04/01 18:12:00;;;;;;;10.10;9.20;;;;;;;5.27;58.06;96508.50;8385456;28;20227;-69
2022/04/01 18:16:06;;;;;;;11.33;10.23;;;;;;;5.33;58.52;96520.22;8384882;28;20514;-70
2022/04/01 18:20:10;;;;;;;10.47;9.47;;;;;;;5.41;57.81;96512.97;8384324;28;20230;-69
2022/04/01 18:24:15;;;;;;;11.73;10.63;;;;;;;5.19;58.77;96520.00;8383414;28;20246;-71
2022/04/01 18:28:20;;;;;;;13.40;11.10;;;;;;;6.42;76.26;96527.00;8380735;28;20243;-73
2022/04/01 18:32:28;;;;;;;12.53;8.50;;;;;;;9.29;68.48;96538.44;8380182;28;20304;-74
2022/04/01 18:36:35;;;;;;;11.17;10.07;;;;;;;7.93;53.32;96535.19;8380259;28;20238;-67
2022/04/01 18:40:41;;;;;;;10.87;9.77;;;;;;;6.89;54.37;96548.59;8380469;28;20242;-68
2022/04/01 18:44:44;;;;;;;10.80;9.33;;;;;;;6.54;54.76;96546.09;8380840;28;20414;-68
2022/04/01 18:48:48;;;;;;;12.63;9.23;;;;;;;5.81;57.75;96547.06;8380630;28;20231;-69
2022/04/01 18:52:51;;;;;;;9.50;8.50;;;;;;;5.83;57.69;96545.25;8380409;28;20546;-67
2022/04/01 18:56:56;;;;;;;9.13;8.27;;;;;;;6.00;57.02;96556.47;8382922;28;20237;-66
2022/04/01 19:01:00;;;;;;;10.03;7.90;;;;;;;6.00;57.07;96559.06;8393930;28;20254;-66
2022/04/01 19:05:06;;;;;;;9.60;8.63;;;;;;;5.60;57.38;96560.91;8409030;28;20552;-66
2022/04/01 19:09:17;;;;;;;11.33;10.13;;;;;;;5.76;57.58;96563.59;8369678;28;20242;-66
2022/04/01 19:13:22;;;;;;;10.50;9.50;;;;;;;5.73;57.58;96577.41;8393694;28;20230;-66
2022/04/01 19:17:26;;;;;;;9.83;8.87;;;;;;;5.83;57.63;96586.34;8396094;28;20223;-66
2022/04/01 19:21:31;;;;;;;11.70;9.50;;;;;;;5.73;57.68;96574.84;8396276;28;20595;-66
2022/04/01 19:25:34;;;;;;;9.90;8.93;;;;;;;5.72;58.07;96580.88;8395360;28;20303;-67
2022/04/01 19:29:38;;;;;;;11.37;9.90;;;;;;;5.62;57.85;96582.22;8396072;28;20411;-67
2022/04/01 19:33:41;;;;;;;10.00;9.00;;;;;;;5.62;58.05;96582.22;8393635;28;20237;-67
2022/04/01 19:37:44;;;;;;;11.93;9.43;;;;;;;5.58;58.30;96586.66;8396334;28;20228;-67